Lena, Louisiana
Current Conditions -  °F | °C
As of 11:28 AM on Sunday 23 Nov 2014 (Local Time) from KAEX Reporting Station
Light Rain Light Rain  
Wind Chill: 66°   Ceiling: 3300
Heat Index: 66°   Visibility: 10mi
Dew Point: 60°   Wind: 13mph
Humidity: 81%   Direction: 230°SW
Pressure: 29.57"   Gusts: 23mph
Location:  31.46°N, 92.77°W
Report Text: KAEX 231728Z 23011G20KT 10SM -RA SCT016 BKN033 19/16 A2957 RMK AO2 P0000 T01890156
Loading
Personal Weather Stations






























Interactive Weather Map New forecast layout! Learn more

10-Day Weather Forecast

Advertisements
Track Severe Weather on mobile